Terminal Aerodrome Forecast
Issued by NWS

Home | Current Version | Previous Version | Text Only | Print | Product List | Glossary On
Versions: 1 2 3 4 5 6 7 8 9 10 11 12 13 14
000
FTUS41 KAKQ 302331
TAFPHF
TAF
KPHF 302331Z 3100/3124 22007KT P6SM SKC
     FM311600 23013G23KT P6SM SCT250
     FM311900 24023G30KT P6SM SCT100
     FM312200 23016G22KT P6SM SCT100=

USA.gov is the U.S. government's official web portal to all federal, state and local government web resources and services.